createdAt,value
2022-08-11T00:00:34.677Z,14.03
2022-08-11T00:01:34.667Z,14.05
2022-08-11T00:02:34.807Z,14.03
2022-08-11T00:03:43.718Z,14
2022-08-11T00:04:34.664Z,13.98
2022-08-11T00:05:34.687Z,13.88
2022-08-11T00:06:34.672Z,13.96
2022-08-11T00:07:34.678Z,13.99
2022-08-11T00:08:34.700Z,14.02
2022-08-11T00:09:38.890Z,14.02
2022-08-11T00:10:34.680Z,13.93
2022-08-11T00:11:34.683Z,13.86
2022-08-11T00:12:34.664Z,13.82
2022-08-11T00:13:34.699Z,13.78
2022-08-11T00:14:37.238Z,13.85
2022-08-11T00:15:34.671Z,13.85
2022-08-11T00:16:34.677Z,13.8
2022-08-11T00:17:34.682Z,13.83
2022-08-11T00:18:34.710Z,13.9
2022-08-11T00:20:11.995Z,13.88
2022-08-11T00:20:34.681Z,13.88
2022-08-11T00:22:04.752Z,13.76
2022-08-11T00:22:34.779Z,13.67
2022-08-11T00:23:34.695Z,13.72
2022-08-11T00:24:34.673Z,13.76
2022-08-11T00:25:34.665Z,13.69
2022-08-11T00:26:34.670Z,13.65
2022-08-11T00:27:34.686Z,13.49
2022-08-11T00:28:34.704Z,13.53
2022-08-11T00:29:34.681Z,13.6
2022-08-11T00:30:34.678Z,13.66
2022-08-11T00:31:34.665Z,13.58
2022-08-11T00:32:34.682Z,13.61
2022-08-11T00:33:44.352Z,13.68
2022-08-11T00:34:34.682Z,13.51
2022-08-11T00:35:52.087Z,13.57
2022-08-11T00:36:34.673Z,13.56
2022-08-11T00:37:34.684Z,13.35
2022-08-11T00:38:34.699Z,13.34
2022-08-11T00:39:34.775Z,13.34
2022-08-11T00:40:34.682Z,13.4
2022-08-11T00:41:34.674Z,13.49
2022-08-11T00:42:34.676Z,13.62
2022-08-11T00:43:34.701Z,13.8
2022-08-11T00:44:34.676Z,13.71
2022-08-11T00:45:34.684Z,13.5
2022-08-11T00:46:34.684Z,13.45
2022-08-11T00:47:34.675Z,13.33
2022-08-11T00:48:34.699Z,13.43
2022-08-11T00:49:34.673Z,13.6
2022-08-11T00:50:34.678Z,13.6
2022-08-11T00:52:02.218Z,13.6
2022-08-11T00:52:34.664Z,13.72
2022-08-11T00:53:34.673Z,13.71
2022-08-11T00:54:34.668Z,13.56
2022-08-11T00:55:34.669Z,13.34
2022-08-11T00:56:34.673Z,13.26
2022-08-11T00:57:37.506Z,13.26
2022-08-11T00:58:34.848Z,13.26
2022-08-11T00:59:35.945Z,13.27
2022-08-11T01:00:34.717Z,13.27
2022-08-11T01:01:34.679Z,13.21
2022-08-11T01:02:34.679Z,13.13
2022-08-11T01:03:34.686Z,13.12
2022-08-11T01:04:34.667Z,13.17
2022-08-11T01:05:34.683Z,13.04
2022-08-11T01:06:34.679Z,12.97
2022-08-11T01:08:01.498Z,13
2022-08-11T01:08:34.691Z,13
2022-08-11T01:09:34.690Z,13
2022-08-11T01:10:34.677Z,13
2022-08-11T01:11:34.679Z,13.02
2022-08-11T01:12:34.679Z,13.02
2022-08-11T01:13:34.694Z,13.18
2022-08-11T01:14:34.868Z,13.64
2022-08-11T01:15:34.680Z,13.15
2022-08-11T01:16:34.685Z,13.16
2022-08-11T01:17:34.680Z,13.18
2022-08-11T01:18:34.701Z,13.13
2022-08-11T01:19:34.665Z,13.61
2022-08-11T01:20:47.268Z,13.12
2022-08-11T01:21:34.673Z,13.23
2022-08-11T01:22:34.685Z,13.21
2022-08-11T01:23:34.696Z,13.04
2022-08-11T01:24:34.694Z,13.11
2022-08-11T01:25:34.684Z,13.1
2022-08-11T01:26:34.678Z,13.1
2022-08-11T01:30:34.693Z,12.93
2022-08-11T01:31:34.685Z,12.8
2022-08-11T01:32:34.668Z,12.79
2022-08-11T01:33:34.686Z,12.83
2022-08-11T01:34:34.684Z,12.75
2022-08-11T01:35:34.671Z,12.71
2022-08-11T01:36:34.813Z,12.64
2022-08-11T01:37:34.684Z,12.67
2022-08-11T01:38:34.673Z,12.65
2022-08-11T01:39:34.717Z,12.58
2022-08-11T01:40:34.670Z,12.68
2022-08-11T01:41:34.673Z,12.73
2022-08-11T01:42:34.674Z,12.81
2022-08-11T01:43:34.685Z,12.8
2022-08-11T01:44:34.681Z,12.86
2022-08-11T01:45:34.679Z,12.81
2022-08-11T01:46:34.670Z,12.81
2022-08-11T01:47:34.671Z,12.81
2022-08-11T01:48:34.686Z,13.35
2022-08-11T01:50:07.107Z,13.02
2022-08-11T01:50:34.682Z,12.92
2022-08-11T01:51:34.676Z,12.92
2022-08-11T01:52:35.258Z,12.83
2022-08-11T01:53:34.677Z,12.83
2022-08-11T01:54:34.708Z,12.81
2022-08-11T01:55:34.664Z,12.81
2022-08-11T01:56:34.661Z,12.7
2022-08-11T01:57:34.659Z,12.61
2022-08-11T01:58:44.110Z,12.58
2022-08-11T01:59:34.683Z,12.66
2022-08-11T02:00:34.743Z,12.77
2022-08-11T02:01:34.666Z,12.73
2022-08-11T02:02:34.665Z,12.79
2022-08-11T02:03:34.680Z,12.78
2022-08-11T02:04:34.680Z,12.73
2022-08-11T02:05:34.665Z,12.78
2022-08-11T02:06:34.673Z,12.68
2022-08-11T02:07:34.673Z,12.65
2022-08-11T02:08:34.665Z,12.6
2022-08-11T02:09:34.690Z,12.55
2022-08-11T02:10:36.533Z,12.58
2022-08-11T02:11:35.449Z,12.58
2022-08-11T02:12:34.748Z,12.43
2022-08-11T02:13:36.667Z,12.43
2022-08-11T02:14:34.693Z,11.92
2022-08-11T02:15:34.664Z,12.37
2022-08-11T02:16:34.676Z,12.31
2022-08-11T02:17:34.665Z,12.45
2022-08-11T02:18:35.039Z,12.45
2022-08-11T02:19:34.686Z,12.51
2022-08-11T02:24:06.112Z,12.5
2022-08-11T02:24:34.687Z,12.5
2022-08-11T02:25:34.664Z,12.48
2022-08-11T02:26:34.670Z,12.3
2022-08-11T02:27:34.681Z,12.21
2022-08-11T02:28:38.392Z,12.18
2022-08-11T02:29:34.679Z,12.02
2022-08-11T02:30:34.658Z,12.02
2022-08-11T02:32:14.548Z,12.37
2022-08-11T02:32:34.755Z,12.16
2022-08-11T02:33:36.425Z,12.25
2022-08-11T02:34:34.691Z,12.21
2022-08-11T02:35:34.678Z,12.24
2022-08-11T02:36:34.681Z,12.26
2022-08-11T02:37:34.679Z,12.25
2022-08-11T02:38:34.681Z,12.23
2022-08-11T02:39:34.723Z,12.18
2022-08-11T02:40:34.670Z,12.13
2022-08-11T02:41:34.670Z,12.03
2022-08-11T02:42:42.266Z,11.85
2022-08-11T02:43:34.675Z,11.89
2022-08-11T02:44:34.702Z,11.89
2022-08-11T02:45:34.663Z,11.93
2022-08-11T02:46:34.684Z,11.98
2022-08-11T02:47:34.680Z,11.98
2022-08-11T02:48:34.686Z,11.88
2022-08-11T02:49:34.682Z,11.66
2022-08-11T02:50:34.677Z,11.66
2022-08-11T02:51:34.662Z,11.66
2022-08-11T02:52:34.667Z,11.8
2022-08-11T02:53:34.665Z,11.72
2022-08-11T02:54:34.693Z,11.72
2022-08-11T02:55:47.985Z,11.71
2022-08-11T02:56:34.661Z,11.72
2022-08-11T02:57:34.665Z,11.67
2022-08-11T02:58:34.667Z,11.54
2022-08-11T02:59:34.686Z,11.64
2022-08-11T03:00:34.666Z,11.64
2022-08-11T03:01:34.683Z,11.85
2022-08-11T03:02:34.694Z,11.82
2022-08-11T03:03:34.682Z,11.76
2022-08-11T03:04:37.607Z,11.72
2022-08-11T03:05:34.657Z,11.72
2022-08-11T03:06:34.664Z,11.76
2022-08-11T03:07:34.675Z,11.75
2022-08-11T03:08:34.670Z,11.68
2022-08-11T03:09:34.681Z,11.68
2022-08-11T03:10:34.669Z,11.68
2022-08-11T03:11:34.672Z,12.02
2022-08-11T03:12:34.667Z,12.06
2022-08-11T03:13:34.668Z,12.08
2022-08-11T03:14:34.691Z,12.09
2022-08-11T03:15:34.669Z,12.24
2022-08-11T03:16:34.670Z,12.52
2022-08-11T03:17:34.668Z,12.64
2022-08-11T03:18:34.703Z,12.64
2022-08-11T03:19:34.680Z,12.34
2022-08-11T03:20:37.932Z,12.24
2022-08-11T03:22:01.739Z,12.15
2022-08-11T03:22:34.670Z,12.12
2022-08-11T03:23:34.670Z,12.18
2022-08-11T03:24:34.691Z,12.32
2022-08-11T03:25:34.674Z,12.43
2022-08-11T03:26:34.663Z,12.23
2022-08-11T03:27:34.671Z,12.12
2022-08-11T03:28:34.671Z,12.04
2022-08-11T03:29:34.679Z,11.96
2022-08-11T03:30:34.656Z,11.96
2022-08-11T03:31:34.675Z,12
2022-08-11T03:32:34.673Z,11.96
2022-08-11T03:33:34.679Z,11.96
2022-08-11T03:34:34.673Z,11.9
2022-08-11T03:35:34.671Z,11.89
2022-08-11T03:36:55.761Z,11.81
2022-08-11T03:37:34.661Z,11.72
2022-08-11T03:38:34.660Z,11.67
2022-08-11T03:39:34.742Z,11.61
2022-08-11T03:40:34.659Z,11.54
2022-08-11T03:42:03.903Z,11.63
2022-08-11T03:42:34.661Z,11.67
2022-08-11T03:43:34.789Z,11.76
2022-08-11T03:44:34.691Z,11.76
2022-08-11T03:45:40.333Z,11.76
2022-08-11T03:46:34.680Z,11.67
2022-08-11T03:47:34.674Z,11.64
2022-08-11T03:48:34.685Z,11.54
2022-08-11T03:49:34.675Z,11.76
2022-08-11T03:50:34.673Z,11.65
2022-08-11T03:51:44.665Z,11.65
2022-08-11T03:52:34.663Z,11.78
2022-08-11T03:53:34.685Z,11.86
2022-08-11T03:54:34.687Z,12.05
2022-08-11T03:55:34.676Z,12.1
2022-08-11T03:56:34.676Z,12.04
2022-08-11T03:57:34.672Z,12.07
2022-08-11T03:58:39.528Z,12.09
2022-08-11T03:59:34.681Z,12.15
2022-08-11T04:00:34.674Z,12.15
2022-08-11T04:01:34.736Z,12.07
2022-08-11T04:02:34.666Z,12
2022-08-11T04:03:34.687Z,11.98
2022-08-11T04:04:34.681Z,12.1
2022-08-11T04:05:34.661Z,12.09
2022-08-11T04:06:34.662Z,12.09
2022-08-11T04:07:34.658Z,12.12
2022-08-11T04:08:34.729Z,12.14
2022-08-11T04:09:34.679Z,12.07
2022-08-11T04:10:34.656Z,12.13
2022-08-11T04:11:34.672Z,12.1
2022-08-11T04:12:35.781Z,12
2022-08-11T04:13:34.666Z,11.91
2022-08-11T04:14:34.671Z,12.1
2022-08-11T04:15:34.662Z,12.1
2022-08-11T04:16:34.661Z,12.1
2022-08-11T04:17:34.661Z,11.97
2022-08-11T04:18:34.679Z,12.05
2022-08-11T04:19:34.674Z,12.2
2022-08-11T04:20:34.658Z,12.2
2022-08-11T04:21:34.693Z,12.28
2022-08-11T04:22:34.675Z,12.26
2022-08-11T04:24:13.262Z,12.29
2022-08-11T04:24:39.276Z,12.19
2022-08-11T04:25:34.659Z,12.2
2022-08-11T04:26:34.658Z,12.32
2022-08-11T04:27:37.208Z,12.32
2022-08-11T04:28:34.669Z,12.47
2022-08-11T04:29:36.358Z,12.41
2022-08-11T04:30:34.676Z,12.41
2022-08-11T04:31:51.801Z,12.65
2022-08-11T04:32:34.664Z,12.69
2022-08-11T04:33:35.078Z,12.75
2022-08-11T04:34:34.684Z,12.62
2022-08-11T04:35:34.658Z,12.62
2022-08-11T04:36:34.684Z,12.51
2022-08-11T04:37:34.936Z,12.51
2022-08-11T04:38:34.668Z,12.83
2022-08-11T04:39:34.778Z,12.83
2022-08-11T04:40:34.663Z,12.83
2022-08-11T04:41:34.672Z,12.52
2022-08-11T04:42:34.818Z,12.62
2022-08-11T04:43:34.668Z,12.69
2022-08-11T04:44:34.679Z,12.48
2022-08-11T04:45:34.681Z,12.4
2022-08-11T04:46:34.672Z,12.49
2022-08-11T04:47:59.721Z,12.81
2022-08-11T04:48:34.678Z,12.81
2022-08-11T04:49:34.675Z,13.11
2022-08-11T04:50:34.658Z,13.11
2022-08-11T04:51:34.673Z,12.96
2022-08-11T04:52:37.450Z,13.05
2022-08-11T04:53:34.670Z,13.22
2022-08-11T04:54:34.683Z,13.14
2022-08-11T04:55:37.170Z,13.18
2022-08-11T04:56:34.661Z,13.12
2022-08-11T04:57:34.672Z,13.22
2022-08-11T04:58:34.668Z,13.19
2022-08-11T04:59:34.689Z,13.22
2022-08-11T05:00:34.676Z,13.22
2022-08-11T05:01:37.396Z,13.32
2022-08-11T05:02:34.666Z,13.4
2022-08-11T05:03:34.694Z,13.39
2022-08-11T05:04:34.690Z,13.39
2022-08-11T05:05:34.673Z,13.39
2022-08-11T05:06:34.667Z,13.6
2022-08-11T05:07:34.661Z,13.4
2022-08-11T05:08:34.674Z,13.53
2022-08-11T05:09:34.671Z,13.58
2022-08-11T05:10:34.654Z,13.58
2022-08-11T05:11:34.664Z,13.52
2022-08-11T05:12:34.662Z,13.55
2022-08-11T05:13:34.675Z,13.59
2022-08-11T05:14:34.695Z,13.61
2022-08-11T05:15:42.582Z,13.61
2022-08-11T05:16:34.664Z,13.69
2022-08-11T05:17:34.656Z,13.72
2022-08-11T05:18:34.674Z,13.84
2022-08-11T05:19:34.662Z,13.68
2022-08-11T05:20:34.663Z,13.68
2022-08-11T05:21:44.961Z,13.81
2022-08-11T05:22:34.680Z,14
2022-08-11T05:23:34.670Z,14.1
2022-08-11T05:24:34.665Z,14.13
2022-08-11T05:26:45.486Z,14.2
2022-08-11T05:26:46.285Z,14.2
2022-08-11T05:27:34.669Z,14.4
2022-08-11T05:28:34.663Z,14.34
2022-08-11T05:29:34.671Z,14.27
2022-08-11T05:30:34.769Z,14.27
2022-08-11T05:31:34.668Z,13.99
2022-08-11T05:32:34.668Z,13.86
2022-08-11T05:33:34.687Z,13.82
2022-08-11T05:34:34.681Z,13.94
2022-08-11T05:36:00.920Z,14.13
2022-08-11T05:36:34.669Z,14.14
2022-08-11T05:37:34.671Z,14.28
2022-08-11T05:38:34.671Z,14.4
2022-08-11T05:39:36.822Z,14.45
2022-08-11T05:40:34.656Z,14.45
2022-08-11T05:41:34.664Z,14.71
2022-08-11T05:42:34.663Z,14.72
2022-08-11T05:43:34.669Z,14.83
2022-08-11T05:44:34.696Z,14.86
2022-08-11T05:46:03.026Z,14.92
2022-08-11T05:46:34.665Z,14.95
2022-08-11T05:47:34.669Z,14.98
2022-08-11T05:48:34.690Z,15.08
2022-08-11T05:49:34.695Z,15.07
2022-08-11T05:50:34.672Z,15.07
2022-08-11T05:51:34.660Z,14.98
2022-08-11T05:52:34.710Z,15.13
2022-08-11T05:53:45.759Z,15.27
2022-08-11T05:54:34.707Z,15.51
2022-08-11T05:55:34.681Z,15.36
2022-08-11T05:56:34.684Z,15.36
2022-08-11T05:57:45.508Z,15.34
2022-08-11T05:58:39.536Z,15.34
2022-08-11T05:59:34.684Z,15.39
2022-08-11T06:00:34.664Z,15.39
2022-08-11T06:01:34.717Z,15.45
2022-08-11T06:02:34.663Z,15.52
2022-08-11T06:03:34.678Z,15.55
2022-08-11T06:04:34.683Z,15.55
2022-08-11T06:05:34.770Z,15.65
2022-08-11T06:06:34.662Z,15.65
2022-08-11T06:07:48.949Z,15.92
2022-08-11T06:08:34.655Z,15.86
2022-08-11T06:09:34.680Z,15.91
2022-08-11T06:10:34.658Z,15.91
2022-08-11T06:11:43.809Z,15.91
2022-08-11T06:12:34.671Z,15.91
2022-08-11T06:13:34.669Z,15.91
2022-08-11T06:14:34.848Z,15.97
2022-08-11T06:15:34.659Z,16.02
2022-08-11T06:16:34.664Z,16.02
2022-08-11T06:17:38.412Z,16.18
2022-08-11T06:18:34.692Z,16.23
2022-08-11T06:19:34.674Z,16.23
2022-08-11T06:20:34.677Z,16.41
2022-08-11T06:21:34.666Z,16.42
2022-08-11T06:22:34.678Z,16.49
2022-08-11T06:23:36.189Z,16.53
2022-08-11T06:24:34.696Z,16.73
2022-08-11T06:25:34.672Z,16.65
2022-08-11T06:26:44.776Z,16.69
2022-08-11T06:27:34.673Z,16.77
2022-08-11T06:28:34.668Z,16.77
2022-08-11T06:29:38.031Z,16.88
2022-08-11T06:30:34.662Z,16.88
2022-08-11T06:31:34.678Z,16.93
2022-08-11T06:32:34.670Z,16.99
2022-08-11T06:33:34.690Z,16.99
2022-08-11T06:34:34.687Z,17.18
2022-08-11T06:35:34.670Z,17.2
2022-08-11T06:36:34.679Z,17.19
2022-08-11T06:37:36.748Z,17.22
2022-08-11T06:38:34.674Z,17.26
2022-08-11T06:39:34.786Z,17.35
2022-08-11T06:40:34.667Z,17.43
2022-08-11T06:41:34.673Z,17.4
2022-08-11T06:42:34.668Z,17.45
2022-08-11T06:43:34.684Z,17.45
2022-08-11T06:44:34.679Z,17.59
2022-08-11T06:45:34.660Z,17.65
2022-08-11T06:46:34.672Z,17.64
2022-08-11T06:47:34.670Z,17.67
2022-08-11T06:48:34.704Z,17.82
2022-08-11T06:49:34.685Z,17.87
2022-08-11T06:50:34.668Z,17.87
2022-08-11T06:51:34.679Z,17.94
2022-08-11T06:52:36.248Z,17.94
2022-08-11T06:53:34.717Z,17.99
2022-08-11T06:54:34.697Z,17.99
2022-08-11T06:55:56.816Z,18.02
2022-08-11T06:56:34.674Z,18.1
2022-08-11T06:57:34.671Z,18.2
2022-08-11T06:58:34.669Z,18.33
2022-08-11T06:59:34.683Z,18.36
2022-08-11T07:00:34.661Z,18.36
2022-08-11T07:01:34.802Z,18.53
2022-08-11T07:02:35.033Z,18.57
2022-08-11T07:03:34.696Z,18.56
2022-08-11T07:04:34.719Z,18.65
2022-08-11T07:05:34.684Z,18.76
2022-08-11T07:06:41.673Z,18.62
2022-08-11T07:07:34.693Z,18.62
2022-08-11T07:08:35.732Z,18.62
2022-08-11T07:09:34.688Z,18.62
2022-08-11T07:10:34.671Z,18.62
2022-08-11T07:11:34.665Z,18.66
2022-08-11T07:12:34.659Z,18.64
2022-08-11T07:13:44.678Z,18.7
2022-08-11T07:14:38.293Z,18.85
2022-08-11T07:16:11.644Z,18.85
2022-08-11T07:16:34.708Z,18.86
2022-08-11T07:17:34.657Z,18.85
2022-08-11T07:18:34.672Z,18.88
2022-08-11T07:19:34.692Z,18.94
2022-08-11T07:20:34.684Z,18.97
2022-08-11T07:22:01.477Z,18.98
2022-08-11T07:22:34.670Z,18.96
2022-08-11T07:23:34.676Z,18.99
2022-08-11T07:25:01.881Z,19.06
2022-08-11T07:25:34.693Z,19.06
2022-08-11T07:26:34.677Z,19.18
2022-08-11T07:27:37.336Z,19.12
2022-08-11T07:28:34.668Z,19.12
2022-08-11T07:29:34.696Z,19.16
2022-08-11T07:30:34.661Z,19.16
2022-08-11T07:31:34.713Z,19.38
2022-08-11T07:32:34.694Z,19.38
2022-08-11T07:34:05.768Z,19.38
2022-08-11T07:34:34.701Z,19.38
2022-08-11T07:35:34.683Z,19.37
2022-08-11T07:36:34.679Z,19.37
2022-08-11T07:37:34.687Z,19.39
2022-08-11T07:38:34.669Z,19.4
2022-08-11T07:39:34.797Z,19.4
2022-08-11T07:40:34.697Z,19.53
2022-08-11T07:41:34.668Z,19.49
2022-08-11T07:42:34.676Z,19.47
2022-08-11T07:43:34.698Z,19.47
2022-08-11T07:44:35.506Z,19.57
2022-08-11T07:45:34.683Z,19.61
2022-08-11T07:46:34.679Z,19.61
2022-08-11T07:47:34.676Z,19.73
2022-08-11T07:48:34.692Z,19.68
2022-08-11T07:49:34.696Z,19.77
2022-08-11T07:50:34.683Z,19.77
2022-08-11T07:51:34.660Z,19.73
2022-08-11T07:52:34.767Z,19.73
2022-08-11T07:53:34.670Z,19.8
2022-08-11T07:54:34.671Z,19.79
2022-08-11T07:55:51.058Z,19.79
2022-08-11T07:56:48.754Z,19.77
2022-08-11T07:57:56.265Z,19.86
2022-08-11T07:58:44.874Z,19.86
2022-08-11T07:59:57.585Z,19.95
2022-08-11T08:00:34.689Z,19.97
2022-08-11T08:01:34.682Z,20.02
2022-08-11T08:02:34.680Z,20.04
2022-08-11T08:03:34.677Z,20.13
2022-08-11T08:04:34.708Z,20.23
2022-08-11T08:05:34.664Z,20.1
2022-08-11T08:06:36.247Z,20.09
2022-08-11T08:07:34.673Z,20.08
2022-08-11T08:08:34.675Z,20.13
2022-08-11T08:14:34.690Z,20.13
2022-08-11T08:15:34.680Z,20.13
2022-08-11T08:16:34.673Z,20.24
2022-08-11T08:17:34.668Z,20.3
2022-08-11T08:18:34.693Z,20.3
2022-08-11T08:19:34.693Z,20.18
2022-08-11T08:20:34.687Z,20.19
2022-08-11T08:21:34.678Z,20.47
2022-08-11T08:22:38.634Z,20.45
2022-08-11T08:23:34.725Z,20.43
2022-08-11T08:24:34.710Z,20.47
2022-08-11T08:25:34.672Z,20.41
2022-08-11T08:26:34.686Z,20.36
2022-08-11T08:27:34.665Z,20.46
2022-08-11T08:28:34.664Z,20.5
2022-08-11T08:29:34.690Z,20.51
2022-08-11T08:30:34.669Z,20.51
2022-08-11T08:31:34.676Z,20.54
2022-08-11T08:32:34.696Z,20.57
2022-08-11T08:33:34.705Z,20.5
2022-08-11T08:34:34.688Z,20.49
2022-08-11T08:35:34.685Z,20.59
2022-08-11T08:36:34.679Z,20.6
2022-08-11T08:37:46.198Z,20.63
2022-08-11T08:38:34.674Z,20.65
2022-08-11T08:39:34.760Z,20.79
2022-08-11T08:40:34.678Z,20.85
2022-08-11T08:41:34.672Z,20.94
2022-08-11T08:42:34.683Z,21.03
2022-08-11T08:43:47.605Z,20.94
2022-08-11T08:44:39.181Z,21.1
2022-08-11T08:45:34.814Z,21.1
2022-08-11T08:46:34.679Z,21.29
2022-08-11T08:47:42.058Z,21.23
2022-08-11T08:48:34.678Z,21.13
2022-08-11T08:49:34.678Z,21.05
2022-08-11T08:50:34.680Z,21
2022-08-11T08:52:02.559Z,20.99
2022-08-11T08:52:37.287Z,20.99
2022-08-11T08:53:34.679Z,20.99
2022-08-11T08:54:34.721Z,21.03
2022-08-11T08:55:34.684Z,21.08
2022-08-11T08:56:34.682Z,21.08
2022-08-11T08:57:39.246Z,21.18
2022-08-11T08:58:34.668Z,21.55
2022-08-11T08:59:47.368Z,21.31
2022-08-11T09:00:34.671Z,21.44
2022-08-11T09:01:34.763Z,21.44
2022-08-11T09:02:35.176Z,21.71
2022-08-11T09:04:02.843Z,21.85
2022-08-11T09:04:34.690Z,21.85
2022-08-11T09:05:34.689Z,21.7
2022-08-11T09:06:34.682Z,21.7
2022-08-11T09:07:38.715Z,21.71
2022-08-11T09:08:34.679Z,21.71
2022-08-11T09:09:34.692Z,21.83
2022-08-11T09:10:34.666Z,21.83
2022-08-11T09:11:34.705Z,21.94
2022-08-11T09:12:45.892Z,21.78
2022-08-11T09:13:34.668Z,21.66
2022-08-11T09:14:34.680Z,21.76
2022-08-11T09:15:34.663Z,21.73
2022-08-11T09:16:34.668Z,21.78
2022-08-11T09:17:34.665Z,21.77
2022-08-11T09:18:34.686Z,21.74
2022-08-11T09:19:34.679Z,21.76
2022-08-11T09:20:34.669Z,21.79
2022-08-11T09:21:48.633Z,21.81
2022-08-11T09:22:34.668Z,21.9
2022-08-11T09:24:07.408Z,22
2022-08-11T09:24:34.694Z,22
2022-08-11T09:25:34.671Z,21.97
2022-08-11T09:26:34.673Z,21.96
2022-08-11T09:27:34.670Z,21.96
2022-08-11T09:28:34.678Z,21.84
2022-08-11T09:29:34.706Z,21.79
2022-08-11T09:30:34.681Z,21.9
2022-08-11T09:31:38.930Z,22.18
2022-08-11T09:32:34.720Z,22.35
2022-08-11T09:33:34.700Z,22.22
2022-08-11T09:34:34.692Z,22.22
2022-08-11T09:35:34.679Z,22.11
2022-08-11T09:36:34.685Z,22
2022-08-11T09:37:54.308Z,22.01
2022-08-11T09:38:34.679Z,22.16
2022-08-11T09:39:34.704Z,22.2
2022-08-11T09:40:34.669Z,22.27
2022-08-11T09:42:00.545Z,22.36
2022-08-11T09:42:34.678Z,22.36
2022-08-11T09:43:34.703Z,22.16
2022-08-11T09:44:34.685Z,22.16
2022-08-11T09:45:40.055Z,22.16
2022-08-11T09:46:34.690Z,22.16
2022-08-11T09:47:34.760Z,22.16
2022-08-11T09:48:34.684Z,22.16
2022-08-11T09:49:34.690Z,22.16
2022-08-11T09:50:34.667Z,22.16
2022-08-11T09:51:34.673Z,22.16
2022-08-11T09:52:34.676Z,22.16
2022-08-11T09:53:40.955Z,22.16
2022-08-11T09:54:34.698Z,22.16
2022-08-11T09:55:34.682Z,22.16
2022-08-11T09:56:34.680Z,22.16
2022-08-11T09:57:34.678Z,22.16
2022-08-11T09:58:42.501Z,22.16
2022-08-11T09:59:34.690Z,22.16
2022-08-11T10:00:34.683Z,22.16
2022-08-11T10:01:34.761Z,22.16
2022-08-11T10:02:34.683Z,22.16
2022-08-11T10:03:38.267Z,22.16
2022-08-11T10:04:34.702Z,22.16
2022-08-11T10:05:34.689Z,22.16
2022-08-11T10:06:34.776Z,22.16
2022-08-11T10:07:34.672Z,22.16
2022-08-11T10:08:34.679Z,22.16
2022-08-11T10:09:34.686Z,22.16
2022-08-11T10:10:34.688Z,22.16
2022-08-11T10:11:34.683Z,22.16
2022-08-11T10:12:34.672Z,22.16
2022-08-11T10:14:31.040Z,22.16
2022-08-11T10:14:35.142Z,22.16
2022-08-11T10:15:34.675Z,22.16
2022-08-11T10:16:34.672Z,22.16
2022-08-11T10:17:34.683Z,22.16
2022-08-11T10:18:34.686Z,22.16
2022-08-11T10:19:34.684Z,22.16
2022-08-11T10:20:34.664Z,22.16
2022-08-11T10:21:34.668Z,22.16
2022-08-11T10:25:34.710Z,22.16
2022-08-11T10:26:34.675Z,22.16
2022-08-11T10:27:34.800Z,22.16
2022-08-11T10:28:50.035Z,22.16
2022-08-11T10:29:36.703Z,22.16
2022-08-11T10:30:34.680Z,22.16
2022-08-11T10:31:57.730Z,22.16
2022-08-11T10:32:36.239Z,22.16
2022-08-11T10:33:37.884Z,22.16
2022-08-11T10:34:34.669Z,22.16
2022-08-11T10:35:34.680Z,22.16
2022-08-11T10:36:34.673Z,22.16
2022-08-11T10:38:07.464Z,22.16
2022-08-11T10:38:34.690Z,22.16
2022-08-11T10:39:34.726Z,22.16
2022-08-11T10:40:34.690Z,22.16
2022-08-11T10:41:34.685Z,22.16
2022-08-11T10:42:54.925Z,22.16
2022-08-11T10:44:02.891Z,22.16
2022-08-11T10:44:34.675Z,22.16
2022-08-11T10:45:34.682Z,22.16
2022-08-11T10:46:34.672Z,22.16
2022-08-11T10:47:34.773Z,22.16
2022-08-11T10:48:34.694Z,22.16
2022-08-11T10:49:34.672Z,22.16
2022-08-11T10:50:34.678Z,22.16
2022-08-11T10:51:50.866Z,22.16
2022-08-11T10:52:34.669Z,22.16
2022-08-11T10:53:34.677Z,22.16
2022-08-11T10:54:34.673Z,22.16
2022-08-11T10:55:34.682Z,22.16
2022-08-11T10:56:34.667Z,22.16
2022-08-11T10:57:34.673Z,22.16
2022-08-11T10:58:34.675Z,22.16
2022-08-11T10:59:34.680Z,22.16
2022-08-11T11:00:34.669Z,22.16
2022-08-11T11:01:34.754Z,22.16
2022-08-11T11:02:34.666Z,22.16
2022-08-11T11:03:34.694Z,22.16
2022-08-11T11:04:34.663Z,22.16
2022-08-11T11:05:34.669Z,22.16
2022-08-11T11:06:34.662Z,22.16
2022-08-11T11:10:34.683Z,22.16
2022-08-11T11:11:34.678Z,22.16
2022-08-11T11:12:34.666Z,22.16
2022-08-11T11:13:34.670Z,22.16
2022-08-11T11:14:34.883Z,22.16
2022-08-11T11:15:34.678Z,22.16
2022-08-11T11:16:34.676Z,22.16
2022-08-11T11:17:34.679Z,22.16
2022-08-11T11:18:34.690Z,22.16
2022-08-11T11:19:34.664Z,22.16
2022-08-11T11:20:37.921Z,22.16
2022-08-11T11:21:34.662Z,22.16
2022-08-11T11:22:34.671Z,22.16
2022-08-11T11:23:34.665Z,22.16
2022-08-11T11:24:34.667Z,22.16
2022-08-11T11:25:34.669Z,22.16
2022-08-11T11:26:34.651Z,22.16
2022-08-11T11:27:34.652Z,22.16
2022-08-11T11:28:34.652Z,22.16
2022-08-11T11:29:34.646Z,22.16
2022-08-11T11:30:34.642Z,22.16
2022-08-11T11:31:34.624Z,22.16
2022-08-11T11:32:34.640Z,22.16
2022-08-11T11:33:34.651Z,22.16
2022-08-11T11:34:34.623Z,22.16
2022-08-11T11:35:34.647Z,22.16
2022-08-11T11:36:34.636Z,22.16
2022-08-11T11:37:34.624Z,22.16
2022-08-11T11:38:34.623Z,22.16
2022-08-11T11:39:34.675Z,22.16
2022-08-11T11:40:34.644Z,22.16
2022-08-11T11:41:34.611Z,22.16
2022-08-11T11:42:34.619Z,22.16
2022-08-11T11:43:34.624Z,22.16
2022-08-11T11:44:34.623Z,22.16
2022-08-11T11:45:34.638Z,22.16
2022-08-11T11:46:38.775Z,22.16
2022-08-11T11:47:34.612Z,22.16
2022-08-11T11:48:34.617Z,22.16
2022-08-11T11:49:34.611Z,22.16
2022-08-11T11:50:34.618Z,22.16
2022-08-11T11:51:34.603Z,22.16
2022-08-11T11:52:34.598Z,22.16
2022-08-11T11:53:34.599Z,22.16
2022-08-11T11:54:34.597Z,22.16
2022-08-11T11:55:34.620Z,22.16
2022-08-11T11:56:34.601Z,22.16
2022-08-11T11:57:34.603Z,22.16
2022-08-11T11:58:34.614Z,22.16
2022-08-11T11:59:34.619Z,22.16
2022-08-11T12:00:34.665Z,22.16
2022-08-11T12:01:34.638Z,22.16
2022-08-11T12:02:34.666Z,22.16
2022-08-11T12:03:34.680Z,22.16
2022-08-11T12:04:34.654Z,22.16
2022-08-11T12:05:34.684Z,22.16
2022-08-11T12:06:34.648Z,22.16
2022-08-11T12:07:34.737Z,22.16
2022-08-11T12:08:34.664Z,22.16
2022-08-11T12:09:34.655Z,22.16
2022-08-11T12:10:34.681Z,22.16
2022-08-11T12:11:34.674Z,22.16
2022-08-11T12:12:34.659Z,22.16
2022-08-11T12:13:34.671Z,22.16
2022-08-11T12:14:34.676Z,22.16
2022-08-11T12:16:06.503Z,22.16
2022-08-11T12:16:36.613Z,22.16
2022-08-11T12:17:34.673Z,22.16
2022-08-11T12:18:34.698Z,22.16
2022-08-11T12:19:35.662Z,22.16
2022-08-11T12:20:34.784Z,22.16
2022-08-11T12:21:34.676Z,22.16
2022-08-11T12:22:34.682Z,22.16
2022-08-11T12:23:34.672Z,22.16
2022-08-11T12:24:34.678Z,22.16
2022-08-11T12:25:34.683Z,22.16
2022-08-11T12:26:34.683Z,22.16
2022-08-11T12:27:34.727Z,22.16
2022-08-11T12:28:34.676Z,22.16
2022-08-11T12:29:34.692Z,22.16
2022-08-11T12:30:34.710Z,22.16
2022-08-11T12:31:34.698Z,22.16
2022-08-11T12:32:34.762Z,22.16
2022-08-11T12:33:38.761Z,22.16
2022-08-11T12:34:34.687Z,22.16
2022-08-11T12:35:34.693Z,22.16
2022-08-11T12:36:34.679Z,22.16
2022-08-11T12:37:34.789Z,22.16
2022-08-11T12:38:34.681Z,22.16
2022-08-11T12:40:15.885Z,22.16
2022-08-11T12:40:42.783Z,22.16
2022-08-11T12:41:34.684Z,22.16
2022-08-11T12:42:34.665Z,22.16
2022-08-11T12:43:37.918Z,22.16
2022-08-11T12:44:34.667Z,22.16
2022-08-11T12:45:34.689Z,22.16
2022-08-11T12:46:34.671Z,22.16
2022-08-11T12:47:34.712Z,22.16
2022-08-11T12:48:59.661Z,22.16
2022-08-11T12:49:34.665Z,22.16
2022-08-11T12:50:34.688Z,22.16
2022-08-11T12:52:00.922Z,22.16
2022-08-11T12:52:34.685Z,22.16
2022-08-11T12:53:34.685Z,22.16
2022-08-11T12:54:34.683Z,22.16
2022-08-11T12:55:34.686Z,22.16
2022-08-11T12:56:34.684Z,22.16
2022-08-11T12:57:45.805Z,22.16
2022-08-11T12:58:34.674Z,22.16
2022-08-11T12:59:34.672Z,22.16
2022-08-11T13:00:34.754Z,22.16
2022-08-11T13:01:34.778Z,22.16
2022-08-11T13:02:35.687Z,22.16
2022-08-11T13:03:34.703Z,22.16
2022-08-11T13:04:34.682Z,22.16
2022-08-11T13:05:34.685Z,22.16
2022-08-11T13:06:34.672Z,22.16
2022-08-11T13:07:50.646Z,22.16
2022-08-11T13:08:34.665Z,22.16
2022-08-11T13:09:34.685Z,22.16
2022-08-11T13:10:34.680Z,22.16
2022-08-11T13:11:56.428Z,22.16
2022-08-11T13:12:34.737Z,22.16